Time;durP1;ratioP1;P1;durP2;ratioP2;P2;SDS_P1;SDS_P2;PMS_P1;PMS_P2;Temp;Humidity;BMP_temperature;BMP_pressure;BME280_temperature;BME280_humidity;BME280_pressure;Samples;Min_cycle;Max_cycle;Signal;HPM_P1;HPM_P2
2024/03/29 00:00:42;;;;;;;2.08;0.60;;;;;;;;;;5079003;28;20181;-72
2024/03/29 00:03:07;;;;;;;3.97;0.70;;;;;;;;;;5073892;28;20545;-72
2024/03/29 00:05:33;;;;;;;3.45;0.90;;;;;;;;;;5084667;28;20209;-72
2024/03/29 00:07:59;;;;;;;4.28;0.57;;;;;;;;;;5085164;28;20196;-72
2024/03/29 00:10:24;;;;;;;2.83;0.70;;;;;;;;;;5083543;28;20199;-72
2024/03/29 00:12:50;;;;;;;2.63;0.73;;;;;;;;;;5085336;28;20191;-72
2024/03/29 00:15:15;;;;;;;3.55;0.80;;;;;;;;;;5083004;28;20189;-72
2024/03/29 00:17:40;;;;;;;3.35;0.60;;;;;;;;;;5083865;28;20176;-72
2024/03/29 00:20:09;;;;;;;5.35;0.70;;;;;;;;;;5082580;28;20239;-72
2024/03/29 00:22:35;;;;;;;4.60;1.13;;;;;;;;;;5082444;28;20188;-72
2024/03/29 00:25:00;;;;;;;3.88;0.43;;;;;;;;;;5083579;28;20549;-72
2024/03/29 00:27:28;;;;;;;4.43;0.65;;;;;;;;;;5081618;28;20195;-72
2024/03/29 00:29:53;;;;;;;3.00;0.47;;;;;;;;;;5082506;28;20975;-71
2024/03/29 00:32:19;;;;;;;4.13;0.52;;;;;;;;;;5081636;28;20195;-72
2024/03/29 00:34:45;;;;;;;3.53;0.70;;;;;;;;;;5080488;28;20188;-72
2024/03/29 00:37:11;;;;;;;3.20;0.80;;;;;;;;;;5081306;28;20297;-72
2024/03/29 00:39:37;;;;;;;3.83;0.60;;;;;;;;;;5083417;28;20204;-72
2024/03/29 00:42:04;;;;;;;2.10;0.50;;;;;;;;;;5082719;28;20655;-72
2024/03/29 00:44:29;;;;;;;2.85;0.82;;;;;;;;;;5083124;28;20235;-72
2024/03/29 00:46:55;;;;;;;2.08;0.73;;;;;;;;;;5084347;28;20659;-72
2024/03/29 00:49:20;;;;;;;2.17;0.45;;;;;;;;;;5084576;28;20180;-72
2024/03/29 00:51:46;;;;;;;5.95;0.75;;;;;;;;;;5083758;28;20192;-72
2024/03/29 00:54:11;;;;;;;4.20;0.65;;;;;;;;;;5081578;28;20608;-72
2024/03/29 00:56:37;;;;;;;2.25;0.65;;;;;;;;;;5084293;28;20824;-72
2024/03/29 00:59:02;;;;;;;7.28;0.68;;;;;;;;;;5084456;28;20223;-72
2024/03/29 01:01:27;;;;;;;2.85;0.70;;;;;;;;;;5081792;28;20833;-72
2024/03/29 01:03:53;;;;;;;3.90;0.63;;;;;;;;;;5084487;28;20259;-72
2024/03/29 01:06:19;;;;;;;4.03;0.75;;;;;;;;;;5084509;28;20468;-72
2024/03/29 01:08:45;;;;;;;3.40;0.80;;;;;;;;;;5087736;28;20635;-72
2024/03/29 01:11:10;;;;;;;3.10;0.60;;;;;;;;;;5084641;28;20196;-72
2024/03/29 01:13:36;;;;;;;5.15;0.55;;;;;;;;;;5086627;28;20237;-72
2024/03/29 01:16:01;;;;;;;3.97;0.70;;;;;;;;;;5088301;28;20312;-71
2024/03/29 01:18:27;;;;;;;4.78;0.50;;;;;;;;;;5086290;28;20211;-71
2024/03/29 01:20:52;;;;;;;2.53;0.55;;;;;;;;;;5086715;28;20195;-71
2024/03/29 01:23:18;;;;;;;6.53;0.60;;;;;;;;;;5087087;28;20188;-71
2024/03/29 01:25:43;;;;;;;4.88;0.68;;;;;;;;;;5083099;28;20192;-71
2024/03/29 01:28:09;;;;;;;4.78;0.60;;;;;;;;;;5087770;28;20206;-71
2024/03/29 01:30:34;;;;;;;2.72;0.68;;;;;;;;;;5085036;28;20511;-71
2024/03/29 01:32:59;;;;;;;4.68;0.90;;;;;;;;;;5086501;28;20200;-71
2024/03/29 01:35:25;;;;;;;4.97;0.65;;;;;;;;;;5085858;28;20266;-71
2024/03/29 01:37:50;;;;;;;3.63;0.60;;;;;;;;;;5085812;28;20234;-71
2024/03/29 01:40:16;;;;;;;3.20;0.85;;;;;;;;;;5086347;28;20248;-73
2024/03/29 01:42:41;;;;;;;3.13;0.57;;;;;;;;;;5086889;28;20632;-72
2024/03/29 01:45:08;;;;;;;4.88;0.80;;;;;;;;;;5085377;28;20194;-72
2024/03/29 01:47:33;;;;;;;3.55;1.38;;;;;;;;;;5085455;28;20659;-71
2024/03/29 01:49:59;;;;;;;4.35;0.70;;;;;;;;;;5085526;28;20176;-72
2024/03/29 01:52:25;;;;;;;4.40;0.63;;;;;;;;;;5085982;28;20244;-72
2024/03/29 01:54:51;;;;;;;2.47;0.60;;;;;;;;;;5086639;28;20192;-72
2024/03/29 01:57:17;;;;;;;5.93;0.77;;;;;;;;;;5082536;28;20183;-71
2024/03/29 01:59:45;;;;;;;4.45;0.70;;;;;;;;;;5083738;28;20204;-72
2024/03/29 02:02:11;;;;;;;2.58;0.50;;;;;;;;;;5084158;28;20533;-72
2024/03/29 02:04:36;;;;;;;2.05;0.40;;;;;;;;;;5086479;28;20237;-72
2024/03/29 02:07:03;;;;;;;4.28;0.73;;;;;;;;;;5088511;28;20180;-72
2024/03/29 02:09:29;;;;;;;2.47;0.60;;;;;;;;;;5084839;28;20523;-71
2024/03/29 02:11:54;;;;;;;6.18;0.73;;;;;;;;;;5086439;28;20200;-72
2024/03/29 02:14:20;;;;;;;6.50;0.95;;;;;;;;;;5084403;28;20192;-71
2024/03/29 02:16:45;;;;;;;7.20;0.70;;;;;;;;;;5085839;28;20196;-71
2024/03/29 02:19:11;;;;;;;4.97;0.98;;;;;;;;;;5085095;28;20200;-71
2024/03/29 02:21:41;;;;;;;3.78;0.70;;;;;;;;;;5084873;28;20192;-71
2024/03/29 02:24:08;;;;;;;3.28;0.50;;;;;;;;;;5085065;28;20281;-72
2024/03/29 02:26:36;;;;;;;3.03;1.13;;;;;;;;;;5085244;28;20180;-71
2024/03/29 02:29:02;;;;;;;3.55;0.73;;;;;;;;;;5086492;28;20196;-71
2024/03/29 02:31:28;;;;;;;4.25;0.57;;;;;;;;;;5086172;28;20212;-71
2024/03/29 02:33:53;;;;;;;3.33;0.40;;;;;;;;;;5085794;28;20270;-71
2024/03/29 02:36:19;;;;;;;2.38;0.45;;;;;;;;;;5086559;28;20608;-71
2024/03/29 02:38:44;;;;;;;3.92;0.57;;;;;;;;;;5086063;28;22060;-71
2024/03/29 02:41:10;;;;;;;3.40;0.75;;;;;;;;;;5087915;28;20189;-71
2024/03/29 02:43:35;;;;;;;5.90;0.98;;;;;;;;;;5084213;28;20192;-71
2024/03/29 02:46:01;;;;;;;3.10;0.95;;;;;;;;;;5086500;28;20979;-71
2024/03/29 02:48:26;;;;;;;3.33;0.80;;;;;;;;;;5068590;28;20549;-71
2024/03/29 02:50:51;;;;;;;3.08;0.90;;;;;;;;;;5085059;28;20319;-71
2024/03/29 02:53:17;;;;;;;4.97;0.82;;;;;;;;;;5085905;28;20180;-72
2024/03/29 02:55:42;;;;;;;4.10;0.60;;;;;;;;;;5084044;28;20180;-72
2024/03/29 02:58:08;;;;;;;5.20;0.63;;;;;;;;;;5085767;28;20202;-72
2024/03/29 03:00:33;;;;;;;2.80;0.55;;;;;;;;;;5085588;28;20356;-71
2024/03/29 03:02:59;;;;;;;4.93;0.57;;;;;;;;;;5086101;28;20184;-72
2024/03/29 03:05:24;;;;;;;5.50;0.70;;;;;;;;;;5084668;28;20563;-71
2024/03/29 03:13:18;;;;;;;3.95;0.85;;;;;;;;;;5083019;28;20222;-72
2024/03/29 03:15:43;;;;;;;3.67;0.70;;;;;;;;;;5083426;28;21622;-72
2024/03/29 03:18:09;;;;;;;3.28;0.70;;;;;;;;;;5082241;28;20192;-71
2024/03/29 03:20:34;;;;;;;4.93;0.80;;;;;;;;;;5085249;28;20207;-71
2024/03/29 03:23:00;;;;;;;5.18;0.70;;;;;;;;;;5083049;28;20188;-72
2024/03/29 03:25:27;;;;;;;4.10;0.65;;;;;;;;;;5085051;28;20188;-71
2024/03/29 03:27:53;;;;;;;3.17;0.57;;;;;;;;;;5084765;28;20188;-72
2024/03/29 03:30:18;;;;;;;4.78;0.90;;;;;;;;;;5083696;28;20230;-72
2024/03/29 03:32:44;;;;;;;4.50;0.50;;;;;;;;;;5085175;28;20188;-72
2024/03/29 03:35:10;;;;;;;3.35;0.60;;;;;;;;;;5080789;28;20266;-72
2024/03/29 03:37:35;;;;;;;2.53;0.85;;;;;;;;;;5084901;28;20279;-72
2024/03/29 03:40:00;;;;;;;4.57;0.75;;;;;;;;;;5084548;28;20650;-72
2024/03/29 03:42:26;;;;;;;3.47;0.88;;;;;;;;;;5082681;28;20634;-72
2024/03/29 03:44:51;;;;;;;4.03;1.42;;;;;;;;;;5084499;28;20690;-72
2024/03/29 03:47:17;;;;;;;4.97;0.82;;;;;;;;;;5083074;28;20179;-72
2024/03/29 03:49:42;;;;;;;5.28;0.88;;;;;;;;;;5085387;28;20844;-72
2024/03/29 03:52:07;;;;;;;2.33;0.70;;;;;;;;;;5083877;28;20196;-72
2024/03/29 03:54:34;;;;;;;2.47;0.82;;;;;;;;;;5084758;28;20199;-72
2024/03/29 03:57:00;;;;;;;5.53;0.85;;;;;;;;;;5084651;28;20199;-72
2024/03/29 03:59:25;;;;;;;4.20;1.02;;;;;;;;;;5082985;28;20208;-72
2024/03/29 04:01:51;;;;;;;3.38;0.93;;;;;;;;;;5084149;28;20249;-72
2024/03/29 04:04:17;;;;;;;5.63;1.10;;;;;;;;;;5083569;28;20193;-72
2024/03/29 04:06:43;;;;;;;3.47;0.90;;;;;;;;;;5084157;28;20184;-72
2024/03/29 04:09:09;;;;;;;7.22;1.30;;;;;;;;;;5082658;28;20546;-72
2024/03/29 04:11:34;;;;;;;3.45;1.10;;;;;;;;;;5083688;28;20553;-72
2024/03/29 04:13:59;;;;;;;4.80;0.98;;;;;;;;;;5083332;28;20274;-72
2024/03/29 04:16:25;;;;;;;5.68;1.23;;;;;;;;;;5084529;28;20306;-72
2024/03/29 04:18:50;;;;;;;3.53;1.40;;;;;;;;;;5083204;28;20204;-72
2024/03/29 04:21:16;;;;;;;3.03;0.85;;;;;;;;;;5084613;28;21765;-72
2024/03/29 04:23:41;;;;;;;4.20;0.77;;;;;;;;;;5082625;28;20234;-72
2024/03/29 04:26:07;;;;;;;3.85;0.98;;;;;;;;;;5084069;28;20670;-72
2024/03/29 04:28:32;;;;;;;4.32;1.00;;;;;;;;;;5081859;28;20206;-72
2024/03/29 04:30:59;;;;;;;4.07;0.68;;;;;;;;;;5082786;28;20332;-71
2024/03/29 04:33:25;;;;;;;2.35;0.60;;;;;;;;;;5082481;28;20654;-71
2024/03/29 04:36:04;;;;;;;1.63;0.52;;;;;;;;;;5083403;28;20199;-72
2024/03/29 04:38:30;;;;;;;3.05;0.70;;;;;;;;;;5083722;28;20706;-71
2024/03/29 04:40:57;;;;;;;2.08;0.45;;;;;;;;;;5084196;28;20189;-72
2024/03/29 04:43:25;;;;;;;2.40;0.50;;;;;;;;;;5083725;28;20176;-71
2024/03/29 04:46:01;;;;;;;2.83;0.57;;;;;;;;;;5082113;28;20225;-71
2024/03/29 04:48:26;;;;;;;1.90;0.40;;;;;;;;;;5083262;28;20211;-71
2024/03/29 04:50:51;;;;;;;3.55;0.65;;;;;;;;;;5078977;28;20211;-71
2024/03/29 04:53:17;;;;;;;2.35;0.60;;;;;;;;;;5081543;28;20585;-71
2024/03/29 04:55:45;;;;;;;2.15;0.43;;;;;;;;;;5082100;28;20176;-70
2024/03/29 04:58:10;;;;;;;2.05;0.47;;;;;;;;;;5084458;28;20252;-71
2024/03/29 05:00:35;;;;;;;3.83;0.45;;;;;;;;;;5083093;28;20342;-71
2024/03/29 05:03:01;;;;;;;4.63;0.50;;;;;;;;;;5083060;28;20188;-70
2024/03/29 05:05:26;;;;;;;4.53;0.50;;;;;;;;;;5081791;28;20194;-70
2024/03/29 05:07:52;;;;;;;3.45;0.55;;;;;;;;;;5082708;28;20212;-70
2024/03/29 05:10:18;;;;;;;3.72;0.47;;;;;;;;;;5083721;28;20188;-71
2024/03/29 05:12:43;;;;;;;0.73;0.30;;;;;;;;;;5081785;28;20218;-71
2024/03/29 05:15:09;;;;;;;2.65;0.40;;;;;;;;;;5082421;28;20719;-71
2024/03/29 05:17:36;;;;;;;2.08;0.43;;;;;;;;;;5082478;28;20724;-71
2024/03/29 05:20:02;;;;;;;3.80;0.88;;;;;;;;;;5081807;28;20667;-71
2024/03/29 05:22:27;;;;;;;2.08;0.60;;;;;;;;;;5082152;28;20211;-71
2024/03/29 05:24:56;;;;;;;1.90;0.50;;;;;;;;;;5082332;28;20692;-70
2024/03/29 05:27:21;;;;;;;3.33;0.70;;;;;;;;;;5082854;28;20276;-71
2024/03/29 05:29:47;;;;;;;3.70;0.63;;;;;;;;;;5082321;28;20739;-71
2024/03/29 05:32:12;;;;;;;2.40;0.50;;;;;;;;;;5108879;28;21207;-72
2024/03/29 05:34:38;;;;;;;3.10;0.60;;;;;;;;;;5083205;28;20198;-70
2024/03/29 05:37:04;;;;;;;3.53;0.60;;;;;;;;;;5082539;28;20217;-71
2024/03/29 05:39:30;;;;;;;2.63;0.65;;;;;;;;;;5082526;28;20235;-71
2024/03/29 05:41:55;;;;;;;3.22;0.60;;;;;;;;;;5080563;28;20666;-72
2024/03/29 05:44:21;;;;;;;3.42;0.70;;;;;;;;;;5082149;28;20278;-72
2024/03/29 05:46:46;;;;;;;3.70;0.60;;;;;;;;;;5082481;28;20657;-72
2024/03/29 05:49:12;;;;;;;2.28;0.80;;;;;;;;;;5081329;28;20199;-73
2024/03/29 05:51:37;;;;;;;2.08;0.60;;;;;;;;;;5083512;28;20191;-73
2024/03/29 05:54:05;;;;;;;2.28;0.90;;;;;;;;;;5083815;28;20222;-73
2024/03/29 05:56:31;;;;;;;6.65;0.60;;;;;;;;;;5083610;28;20192;-73
2024/03/29 05:58:56;;;;;;;2.20;0.70;;;;;;;;;;5086415;28;20624;-73
2024/03/29 06:01:23;;;;;;;2.55;0.90;;;;;;;;;;5086887;28;20176;-76
2024/03/29 06:03:51;;;;;;;2.70;0.63;;;;;;;;;;5086103;28;20267;-76
2024/03/29 06:06:17;;;;;;;3.75;0.88;;;;;;;;;;5087242;28;20191;-79
2024/03/29 06:08:46;;;;;;;4.47;0.70;;;;;;;;;;5091295;28;20667;-78
2024/03/29 06:11:11;;;;;;;4.63;0.75;;;;;;;;;;5085846;28;20192;-79
2024/03/29 06:19:06;;;;;;;1.60;0.60;;;;;;;;;;5102249;28;20644;-78
2024/03/29 06:21:40;;;;;;;2.50;0.70;;;;;;;;;;5085450;28;20237;-79
2024/03/29 06:24:14;;;;;;;3.80;0.80;;;;;;;;;;5115962;27;20665;-79
2024/03/29 06:26:40;;;;;;;5.22;0.70;;;;;;;;;;5089826;28;20184;-80
2024/03/29 06:29:06;;;;;;;1.92;0.68;;;;;;;;;;5091268;28;20221;-80
2024/03/29 06:31:31;;;;;;;2.70;0.60;;;;;;;;;;5091448;28;20265;-80
2024/03/29 06:33:58;;;;;;;3.45;0.70;;;;;;;;;;5090395;28;20219;-79
2024/03/29 06:36:24;;;;;;;3.13;0.70;;;;;;;;;;5087652;28;20184;-79
2024/03/29 06:38:49;;;;;;;2.65;0.90;;;;;;;;;;5091731;28;20721;-80
2024/03/29 06:41:15;;;;;;;5.85;0.90;;;;;;;;;;5089085;28;20187;-78
2024/03/29 06:43:44;;;;;;;2.58;0.70;;;;;;;;;;5085925;28;20199;-78
2024/03/29 06:46:10;;;;;;;3.25;1.02;;;;;;;;;;5069363;28;20233;-77
2024/03/29 06:48:36;;;;;;;3.25;0.80;;;;;;;;;;5086416;28;20204;-77
2024/03/29 06:51:02;;;;;;;1.70;0.70;;;;;;;;;;5086550;28;20848;-78
2024/03/29 06:53:28;;;;;;;1.65;0.65;;;;;;;;;;5086500;28;20200;-79
2024/03/29 06:55:55;;;;;;;3.50;0.80;;;;;;;;;;5088668;28;20191;-79
2024/03/29 06:58:20;;;;;;;1.67;0.70;;;;;;;;;;5088054;28;20188;-79
2024/03/29 07:00:49;;;;;;;7.07;1.27;;;;;;;;;;5067965;28;20574;-79
2024/03/29 07:03:14;;;;;;;4.53;1.17;;;;;;;;;;5086856;28;20188;-78
2024/03/29 07:05:41;;;;;;;6.90;1.08;;;;;;;;;;5069335;28;20524;-79
2024/03/29 07:08:06;;;;;;;3.63;1.10;;;;;;;;;;5080343;28;20197;-79
2024/03/29 07:10:32;;;;;;;4.68;1.05;;;;;;;;;;5083922;28;20249;-79
2024/03/29 07:12:58;;;;;;;8.00;1.40;;;;;;;;;;5084292;28;20233;-78
2024/03/29 07:15:23;;;;;;;5.70;1.42;;;;;;;;;;5081931;28;20288;-78
2024/03/29 07:17:50;;;;;;;6.70;1.48;;;;;;;;;;5066520;28;20180;-78
2024/03/29 07:20:16;;;;;;;5.30;1.38;;;;;;;;;;5082891;28;21375;-77
2024/03/29 07:22:42;;;;;;;7.10;1.50;;;;;;;;;;5082614;28;20184;-77
2024/03/29 07:25:07;;;;;;;5.75;1.27;;;;;;;;;;5082919;28;20188;-77
2024/03/29 07:27:35;;;;;;;3.00;1.10;;;;;;;;;;5081623;28;20651;-77
2024/03/29 07:30:07;;;;;;;3.28;1.00;;;;;;;;;;5082911;28;20263;-77
2024/03/29 07:32:33;;;;;;;4.65;1.50;;;;;;;;;;5082846;28;20235;-77
2024/03/29 07:34:59;;;;;;;6.50;1.67;;;;;;;;;;5083564;28;20225;-77
2024/03/29 07:37:25;;;;;;;3.88;1.67;;;;;;;;;;5083436;28;20232;-77
2024/03/29 07:39:51;;;;;;;5.53;1.70;;;;;;;;;;5083932;28;20289;-77
2024/03/29 07:42:16;;;;;;;4.15;1.25;;;;;;;;;;5083964;28;20195;-78
2024/03/29 07:44:42;;;;;;;3.40;1.27;;;;;;;;;;5080708;28;20207;-76
2024/03/29 07:47:08;;;;;;;5.22;1.58;;;;;;;;;;5079961;28;20195;-76
2024/03/29 07:49:34;;;;;;;4.25;1.60;;;;;;;;;;5081242;28;20175;-75
2024/03/29 07:52:02;;;;;;;4.05;1.30;;;;;;;;;;5081162;28;20237;-75
2024/03/29 07:54:27;;;;;;;5.22;1.20;;;;;;;;;;5081471;28;20207;-73
2024/03/29 07:56:53;;;;;;;9.27;1.60;;;;;;;;;;5079688;28;20187;-73
2024/03/29 07:59:19;;;;;;;2.47;1.27;;;;;;;;;;5082831;28;20192;-74
2024/03/29 08:01:45;;;;;;;2.75;1.48;;;;;;;;;;5082332;28;20198;-73
2024/03/29 08:04:11;;;;;;;3.60;1.55;;;;;;;;;;5063875;28;20577;-73
2024/03/29 08:06:36;;;;;;;5.75;2.00;;;;;;;;;;5082370;28;20624;-74
2024/03/29 08:09:02;;;;;;;5.97;1.92;;;;;;;;;;5079642;28;20195;-72
2024/03/29 08:11:27;;;;;;;5.20;1.88;;;;;;;;;;5084651;28;20268;-73
2024/03/29 08:13:53;;;;;;;5.15;1.77;;;;;;;;;;5082765;28;20180;-72
2024/03/29 08:16:19;;;;;;;5.25;1.98;;;;;;;;;;5081415;28;20189;-72
2024/03/29 08:18:47;;;;;;;4.00;1.98;;;;;;;;;;5082590;28;20204;-72
2024/03/29 08:21:13;;;;;;;5.78;1.80;;;;;;;;;;5083966;28;20453;-72
2024/03/29 08:23:45;;;;;;;3.60;1.63;;;;;;;;;;5082771;28;20184;-73
2024/03/29 08:26:10;;;;;;;3.30;1.55;;;;;;;;;;5082355;28;20200;-73
2024/03/29 08:28:37;;;;;;;3.17;1.83;;;;;;;;;;5082655;28;20191;-73
2024/03/29 08:31:09;;;;;;;3.95;1.80;;;;;;;;;;5065805;28;20195;-73
2024/03/29 08:33:37;;;;;;;7.72;2.03;;;;;;;;;;5083523;28;20585;-73
2024/03/29 08:36:07;;;;;;;7.47;1.52;;;;;;;;;;5083534;28;20203;-73
2024/03/29 08:38:33;;;;;;;5.80;1.90;;;;;;;;;;5082971;28;20295;-73
2024/03/29 08:40:59;;;;;;;3.30;1.38;;;;;;;;;;5083385;28;20203;-73
2024/03/29 08:43:24;;;;;;;6.63;2.08;;;;;;;;;;5065578;28;20191;-73
2024/03/29 08:45:50;;;;;;;4.07;1.42;;;;;;;;;;5083767;28;20191;-73
2024/03/29 08:48:15;;;;;;;8.50;1.90;;;;;;;;;;5084263;28;20565;-73
2024/03/29 08:50:41;;;;;;;5.40;1.80;;;;;;;;;;5065246;28;20267;-73
2024/03/29 08:53:07;;;;;;;3.97;1.70;;;;;;;;;;5079748;28;20184;-72
2024/03/29 08:55:33;;;;;;;4.68;1.80;;;;;;;;;;5080212;28;20196;-73
2024/03/29 08:58:00;;;;;;;7.30;1.90;;;;;;;;;;5084190;28;20663;-71
2024/03/29 09:00:29;;;;;;;4.97;1.85;;;;;;;;;;5082371;28;20673;-72
2024/03/29 09:02:58;;;;;;;4.60;1.95;;;;;;;;;;5082771;28;20195;-72
2024/03/29 09:05:26;;;;;;;5.97;2.20;;;;;;;;;;5082132;28;21923;-72
2024/03/29 09:07:52;;;;;;;4.57;1.63;;;;;;;;;;5065164;28;20195;-72
2024/03/29 09:10:17;;;;;;;3.78;1.42;;;;;;;;;;5083467;28;20180;-70
2024/03/29 09:12:43;;;;;;;4.38;1.15;;;;;;;;;;5081584;28;20180;-71
2024/03/29 09:15:15;;;;;;;5.80;1.50;;;;;;;;;;5082019;28;20188;-71
2024/03/29 09:17:41;;;;;;;3.95;1.50;;;;;;;;;;5079440;28;20196;-71
2024/03/29 09:20:07;;;;;;;3.92;1.33;;;;;;;;;;5081930;28;20220;-71
2024/03/29 09:22:33;;;;;;;5.97;1.52;;;;;;;;;;5082659;28;20658;-72
2024/03/29 09:24:58;;;;;;;2.95;1.00;;;;;;;;;;5079635;28;21254;-72
2024/03/29 09:27:24;;;;;;;7.18;1.40;;;;;;;;;;5081499;28;20218;-72
2024/03/29 09:29:49;;;;;;;4.00;1.27;;;;;;;;;;5086595;28;20184;-73
2024/03/29 09:32:19;;;;;;;3.30;1.00;;;;;;;;;;5086460;28;20260;-72
2024/03/29 09:34:45;;;;;;;5.03;1.13;;;;;;;;;;5085330;28;20207;-72
2024/03/29 09:37:10;;;;;;;4.63;1.15;;;;;;;;;;5083446;28;20255;-72
2024/03/29 09:39:35;;;;;;;6.60;1.20;;;;;;;;;;5085796;28;20712;-72
2024/03/29 09:42:03;;;;;;;4.05;1.35;;;;;;;;;;5086940;28;20240;-72
2024/03/29 09:44:32;;;;;;;5.43;1.85;;;;;;;;;;5087137;28;20286;-72
2024/03/29 09:47:03;;;;;;;4.20;1.33;;;;;;;;;;5086118;28;20200;-72
2024/03/29 09:49:30;;;;;;;4.30;1.50;;;;;;;;;;5086612;28;20575;-72
2024/03/29 09:51:56;;;;;;;5.25;1.40;;;;;;;;;;5085175;28;20662;-72
2024/03/29 09:54:23;;;;;;;6.88;1.20;;;;;;;;;;5086887;28;20195;-72
2024/03/29 09:56:50;;;;;;;4.93;1.25;;;;;;;;;;5085705;28;20184;-71
2024/03/29 09:59:15;;;;;;;4.28;1.60;;;;;;;;;;5085095;28;20211;-71
2024/03/29 10:01:41;;;;;;;2.63;1.20;;;;;;;;;;5084943;28;20184;-71
2024/03/29 10:04:08;;;;;;;2.75;1.05;;;;;;;;;;5083353;28;20259;-70
2024/03/29 10:06:35;;;;;;;3.85;1.63;;;;;;;;;;5086497;28;20194;-70
2024/03/29 10:09:01;;;;;;;3.33;1.15;;;;;;;;;;5086785;28;20199;-70
2024/03/29 10:11:26;;;;;;;4.13;1.38;;;;;;;;;;5086991;28;20192;-70
2024/03/29 10:13:52;;;;;;;3.97;1.30;;;;;;;;;;5086199;28;20270;-71
2024/03/29 10:16:24;;;;;;;2.65;1.60;;;;;;;;;;5087947;28;20192;-71
2024/03/29 10:18:50;;;;;;;3.80;1.27;;;;;;;;;;5084979;28;20208;-71
2024/03/29 10:21:16;;;;;;;4.28;1.60;;;;;;;;;;5085400;28;20493;-71
2024/03/29 10:23:42;;;;;;;1.83;1.20;;;;;;;;;;5084690;28;20622;-72
2024/03/29 10:26:08;;;;;;;4.07;1.35;;;;;;;;;;5086436;28;20220;-71
2024/03/29 10:28:35;;;;;;;3.75;1.83;;;;;;;;;;5085983;28;20528;-71
2024/03/29 10:31:05;;;;;;;5.18;1.55;;;;;;;;;;5086204;28;20188;-71
2024/03/29 10:33:31;;;;;;;4.68;1.90;;;;;;;;;;5085312;28;20184;-71
2024/03/29 10:35:59;;;;;;;4.03;1.88;;;;;;;;;;5085609;28;20203;-70
2024/03/29 10:38:26;;;;;;;6.43;1.77;;;;;;;;;;5085863;28;20311;-70
2024/03/29 10:40:52;;;;;;;2.13;1.50;;;;;;;;;;5086192;28;20216;-71
2024/03/29 10:43:19;;;;;;;3.53;1.60;;;;;;;;;;5085327;28;20711;-71
2024/03/29 10:45:46;;;;;;;4.05;1.85;;;;;;;;;;5081996;28;20226;-71
2024/03/29 10:48:15;;;;;;;3.53;1.65;;;;;;;;;;5085782;28;20192;-71
2024/03/29 10:50:42;;;;;;;2.38;1.77;;;;;;;;;;5086574;28;20188;-70
2024/03/29 10:53:09;;;;;;;3.72;1.70;;;;;;;;;;5084941;28;20209;-71
2024/03/29 10:55:35;;;;;;;2.50;1.65;;;;;;;;;;5086661;28;20499;-70
2024/03/29 10:58:01;;;;;;;3.15;1.90;;;;;;;;;;5085651;28;20191;-71
2024/03/29 11:00:38;;;;;;;4.03;1.63;;;;;;;;;;5085139;28;20544;-70
2024/03/29 11:03:19;;;;;;;2.47;1.67;;;;;;;;;;5085713;28;20191;-70
2024/03/29 11:05:48;;;;;;;5.00;1.55;;;;;;;;;;5083941;28;20199;-71
2024/03/29 11:08:22;;;;;;;4.20;1.90;;;;;;;;;;5085645;28;20222;-70
2024/03/29 11:10:50;;;;;;;2.80;1.42;;;;;;;;;;5085868;28;20559;-70
2024/03/29 11:13:40;;;;;;;3.30;1.58;;;;;;;;;;5084346;28;20365;-70
2024/03/29 11:16:07;;;;;;;3.80;1.60;;;;;;;;;;5085391;28;20184;-70
2024/03/29 11:18:34;;;;;;;6.75;1.45;;;;;;;;;;5084605;28;20222;-71
2024/03/29 11:21:01;;;;;;;4.63;1.63;;;;;;;;;;5085575;28;20664;-71
2024/03/29 11:23:27;;;;;;;3.58;1.40;;;;;;;;;;5087164;28;20184;-70
2024/03/29 11:25:57;;;;;;;4.25;1.67;;;;;;;;;;5085633;28;20192;-70
2024/03/29 11:28:31;;;;;;;3.53;1.33;;;;;;;;;;5084535;28;20184;-70
2024/03/29 11:31:01;;;;;;;2.60;1.40;;;;;;;;;;5085169;28;20230;-70
2024/03/29 11:33:33;;;;;;;2.15;1.20;;;;;;;;;;5077887;28;20215;-71
2024/03/29 11:36:01;;;;;;;5.57;1.65;;;;;;;;;;5083844;28;20184;-71
2024/03/29 11:38:31;;;;;;;3.85;1.40;;;;;;;;;;5082166;28;20243;-71
2024/03/29 11:41:07;;;;;;;3.03;1.33;;;;;;;;;;5086874;28;20208;-71
2024/03/29 11:43:34;;;;;;;4.95;1.40;;;;;;;;;;5084459;28;20192;-70
2024/03/29 11:46:01;;;;;;;3.10;1.00;;;;;;;;;;5082941;28;20211;-71
2024/03/29 11:48:28;;;;;;;1.88;1.17;;;;;;;;;;5083303;28;20217;-70
2024/03/29 11:50:53;;;;;;;2.13;1.27;;;;;;;;;;5083850;28;20187;-71
2024/03/29 11:53:22;;;;;;;2.78;1.10;;;;;;;;;;5082410;28;20185;-70
2024/03/29 11:55:53;;;;;;;3.55;1.25;;;;;;;;;;5082843;28;20189;-71
2024/03/29 11:58:26;;;;;;;3.55;1.10;;;;;;;;;;5084409;28;20287;-71
2024/03/29 12:00:53;;;;;;;2.30;1.25;;;;;;;;;;5080488;28;20204;-70
2024/03/29 12:03:20;;;;;;;3.47;1.35;;;;;;;;;;5083881;28;20196;-71
2024/03/29 12:05:48;;;;;;;4.85;1.40;;;;;;;;;;5081989;28;20195;-71
2024/03/29 12:08:14;;;;;;;11.32;2.10;;;;;;;;;;5084426;28;20237;-71
2024/03/29 12:10:40;;;;;;;6.93;1.30;;;;;;;;;;5083784;28;20593;-71
2024/03/29 12:13:06;;;;;;;1.00;0.90;;;;;;;;;;5084280;28;20636;-71
2024/03/29 12:15:32;;;;;;;2.53;1.10;;;;;;;;;;5082373;28;20190;-71
2024/03/29 12:17:59;;;;;;;4.50;0.98;;;;;;;;;;5080556;28;20199;-71
2024/03/29 12:20:25;;;;;;;4.78;0.98;;;;;;;;;;5082834;28;20220;-71
2024/03/29 12:22:50;;;;;;;2.90;1.17;;;;;;;;;;5081794;28;20192;-70
2024/03/29 12:25:16;;;;;;;3.47;1.52;;;;;;;;;;5080199;28;20282;-70
2024/03/29 12:27:46;;;;;;;3.85;0.93;;;;;;;;;;5082776;28;20196;-70
2024/03/29 12:30:13;;;;;;;2.72;1.33;;;;;;;;;;5082213;28;20556;-70
2024/03/29 12:32:39;;;;;;;3.33;1.33;;;;;;;;;;5081713;28;20173;-70
2024/03/29 12:35:12;;;;;;;4.90;1.13;;;;;;;;;;5082283;28;20554;-71
2024/03/29 12:37:38;;;;;;;1.80;1.00;;;;;;;;;;5082246;28;20318;-70
2024/03/29 12:40:18;;;;;;;1.92;1.33;;;;;;;;;;5083383;28;20250;-70
2024/03/29 12:42:43;;;;;;;2.35;1.30;;;;;;;;;;5084323;28;20268;-70
2024/03/29 12:45:10;;;;;;;3.08;1.23;;;;;;;;;;5083068;28;20196;-71
2024/03/29 12:47:36;;;;;;;2.35;1.50;;;;;;;;;;5084215;28;20203;-71
2024/03/29 12:50:03;;;;;;;1.42;0.90;;;;;;;;;;5083702;28;20227;-71
2024/03/29 12:52:37;;;;;;;2.38;1.00;;;;;;;;;;5083973;28;20190;-70
2024/03/29 12:55:03;;;;;;;2.15;0.90;;;;;;;;;;5081202;28;20207;-70
2024/03/29 12:57:29;;;;;;;1.48;0.90;;;;;;;;;;5082276;28;20718;-71
2024/03/29 12:59:54;;;;;;;2.97;0.80;;;;;;;;;;5081301;28;20220;-71
2024/03/29 13:02:21;;;;;;;2.95;0.90;;;;;;;;;;5082867;28;20253;-70
2024/03/29 13:04:47;;;;;;;1.10;0.65;;;;;;;;;;5077022;28;20568;-71
2024/03/29 13:07:14;;;;;;;2.17;0.77;;;;;;;;;;5082425;28;20188;-71
2024/03/29 13:09:40;;;;;;;2.42;0.65;;;;;;;;;;5081670;28;20199;-71
2024/03/29 13:12:06;;;;;;;2.22;0.50;;;;;;;;;;5065923;28;20559;-71
2024/03/29 13:14:31;;;;;;;1.00;0.70;;;;;;;;;;5082620;28;20235;-70
2024/03/29 13:16:57;;;;;;;0.65;0.35;;;;;;;;;;5083589;28;20180;-70
2024/03/29 13:19:22;;;;;;;0.70;0.43;;;;;;;;;;5084305;28;20699;-70
2024/03/29 13:21:48;;;;;;;0.40;0.40;;;;;;;;;;5083174;28;20192;-70
2024/03/29 13:24:14;;;;;;;1.17;0.50;;;;;;;;;;5085481;28;20184;-70
2024/03/29 13:26:39;;;;;;;0.95;0.60;;;;;;;;;;5084332;28;20188;-71
2024/03/29 13:29:05;;;;;;;1.00;0.50;;;;;;;;;;5081730;28;20208;-70
2024/03/29 13:31:31;;;;;;;1.58;0.32;;;;;;;;;;5084091;28;20183;-70
2024/03/29 13:34:03;;;;;;;1.65;0.50;;;;;;;;;;5085456;28;20196;-70
2024/03/29 13:36:30;;;;;;;3.63;0.50;;;;;;;;;;5080343;28;20674;-70
2024/03/29 13:38:55;;;;;;;1.50;0.50;;;;;;;;;;5084961;28;20192;-70
2024/03/29 13:41:21;;;;;;;2.00;0.60;;;;;;;;;;5080385;28;20192;-70
2024/03/29 13:43:47;;;;;;;2.85;0.50;;;;;;;;;;5080023;28;20848;-71
2024/03/29 13:46:12;;;;;;;0.50;0.50;;;;;;;;;;5083113;28;20188;-70
2024/03/29 13:48:38;;;;;;;0.50;0.38;;;;;;;;;;5079773;28;20180;-71
2024/03/29 13:51:03;;;;;;;0.50;0.50;;;;;;;;;;5082583;28;20263;-71
2024/03/29 13:53:34;;;;;;;4.38;0.57;;;;;;;;;;5069960;28;20193;-72
2024/03/29 13:56:01;;;;;;;1.95;0.50;;;;;;;;;;5084361;28;20180;-71
2024/03/29 13:58:27;;;;;;;1.10;0.73;;;;;;;;;;5087504;28;20214;-71
2024/03/29 14:00:55;;;;;;;0.98;0.50;;;;;;;;;;5087436;28;20208;-71
2024/03/29 14:03:22;;;;;;;1.38;0.60;;;;;;;;;;4381006;28;10000869;-71
2024/03/29 14:05:48;;;;;;;0.50;0.32;;;;;;;;;;5081602;28;20195;-71
2024/03/29 14:08:13;;;;;;;0.68;0.38;;;;;;;;;;5072167;28;20188;-71
2024/03/29 14:10:39;;;;;;;0.85;0.50;;;;;;;;;;5083981;28;20200;-71
2024/03/29 14:13:04;;;;;;;0.95;0.50;;;;;;;;;;5067376;28;20184;-71
2024/03/29 14:15:30;;;;;;;1.23;0.60;;;;;;;;;;5083005;28;20281;-71
2024/03/29 14:17:55;;;;;;;0.32;0.32;;;;;;;;;;5078517;28;20200;-71
2024/03/29 14:20:21;;;;;;;1.65;0.40;;;;;;;;;;5082750;28;20216;-71
2024/03/29 14:22:52;;;;;;;1.33;0.55;;;;;;;;;;5081259;28;20192;-71
2024/03/29 14:25:17;;;;;;;0.82;0.47;;;;;;;;;;5079498;28;20181;-69
2024/03/29 14:28:03;;;;;;;1.23;0.40;;;;;;;;;;5084407;28;20189;-70
2024/03/29 14:30:29;;;;;;;1.90;0.50;;;;;;;;;;5086404;28;20204;-70
2024/03/29 14:32:56;;;;;;;0.40;0.40;;;;;;;;;;5074194;28;20185;-70
2024/03/29 14:35:22;;;;;;;0.57;0.40;;;;;;;;;;5086063;28;20192;-71
2024/03/29 14:37:47;;;;;;;1.33;0.43;;;;;;;;;;5084533;28;20227;-71
2024/03/29 14:40:16;;;;;;;0.68;0.30;;;;;;;;;;5087581;28;20208;-71
2024/03/29 14:42:42;;;;;;;1.95;0.30;;;;;;;;;;5079610;28;20196;-71
2024/03/29 14:45:11;;;;;;;0.43;0.30;;;;;;;;;;5085015;28;20358;-71
2024/03/29 14:47:36;;;;;;;0.75;0.50;;;;;;;;;;5086629;28;20283;-70
2024/03/29 14:50:04;;;;;;;1.27;0.40;;;;;;;;;;5084957;28;20267;-71